• Join FlightAware (Why Join?)
  • Login
  • US Flag 
01:18PM EDT


 

Airport Tracker/Info


-or-


 

Live Flight TrackerFlight Track Log ✈ N75ZM ✈ 08-Oct-2013 ✈ MYAM / MHH - KFPR

Flight Track Log - Related Links

Times and Time Zones

All times are in EDT time to prevent confusion due to time zone crossing. See the N75ZM flight status page for this flight to view local times or setup timezone preferences in your user account.

Time Position Orientation Groundspeed Altitude Reporting Facility
EDT Latitude Longitude Course Direction KTS MPH feet Rate Location/Type
09:55AM 26.6200 -77.4769 289° West 149 171 7,500  Level Miami Center
09:56AM 26.6178 -77.5211 267° West 139 160 8,000 300 Climbing Miami Center
09:57AM 26.6175 -77.5583 270° West 130 150 8,100  Climbing Miami Center
09:58AM 26.6217 -77.6069 275° West 144 166 8,100  Level Miami Center
09:59AM 26.6256 -77.6536 275° West 144 166 8,100  Level Miami Center
10:00AM 26.7829 -77.9584 289° West  Level Estimated
10:00AM 26.6336 -77.7000 281° West 149 171 8,100  Level Miami Center
10:01AM 26.6356 -77.7419 273° West 149 171 8,100 -60 Level Miami Center
10:02AM 26.6497 -77.7817 292° West 149 171 8,000  Descending Miami Center
10:03AM 26.6556 -77.8444 276° West 168 193 8,100  Climbing Miami Center
10:04AM 26.6553 -77.8956 270° West 168 193 8,000 -60 Descending Miami Center
10:05AM 26.6550 -77.9419 270° West 168 193 8,000  Level Miami Center
10:06AM 26.6547 -77.9747 269° West 168 193 8,000  Level Miami Center
10:08AM 26.6547 -77.9747 318° Northwest 168 193 8,000  Level Miami Center
10:10AM 26.6547 -77.9747 318° Northwest 168 193 8,000  Level Miami Center
10:12AM 26.6547 -77.9747 318° Northwest 168 193 8,000  Level Miami Center
10:14AM 26.6547 -77.9747 318° Northwest 168 193 8,000  Level Miami Center
10:16AM 26.9664 -78.1850 329° Northwest 168 193 8,000  Level Miami Center
10:18AM 26.9664 -78.1850 180° South 168 193 8,000  Level Miami Center
10:20AM 26.9664 -78.1850 180° South 168 193 8,000  Level Miami Center
10:22AM 26.8167 -78.7047 252° West 168 193 8,100  Climbing Miami Center
10:23AM 26.8283 -78.7586 284° West 162 186 8,100  Level Miami Center
10:24AM 26.8444 -78.8053 291° West 157 181 8,100  Level Miami Center
10:25AM 26.8606 -78.8475 293° West 157 181 8,100  Level Miami Center
10:26AM 26.8831 -78.8922 299° West 157 181 8,100  Level Miami Center
10:27AM 26.9011 -78.9367 294° West 157 181 8,100  Level Miami Center
10:28AM 26.9214 -78.9792 298° West 157 181 8,100  Level Miami Center
10:29AM 26.9436 -79.0239 299° West 157 181 8,100  Level Miami Center
10:30AM 26.9619 -79.0661 296° West 157 181 8,100  Level Miami Center
10:31AM 26.9842 -79.1061 302° West 157 181 8,100  Level Miami Center
10:32AM 27.0192 -79.1442 316° Northwest 157 181 8,100  Level Miami Center
10:33AM 27.0519 -79.1797 316° Northwest 162 186 8,100  Level Miami Center
10:34AM 27.0869 -79.2153 318° Northwest 168 193 8,100  Level Miami Center
10:35AM 27.1197 -79.2511 316° Northwest 168 193 8,100  Level Miami Center
10:36AM 27.1525 -79.2892 314° West 168 193 8,100 -120 Level Miami Center
10:37AM 27.1708 -79.3269 299° West 168 193 7,900 -360 Descending Miami Center
10:38AM 27.1928 -79.3764 297° West 168 193 7,400 -600 Descending Miami Center
10:39AM 27.2108 -79.4281 291° West 175 201 6,800 -600 Descending Miami Center
10:40AM 27.2267 -79.4753 291° West 168 193 6,300 -540 Descending Miami Center
10:41AM 27.2425 -79.5175 293° West 163 188 5,800 -540 Descending Miami Center
10:42AM 27.2586 -79.5578 294° West 163 188 5,300 -540 Descending Miami Center
10:43AM 27.2744 -79.6000 293° West 157 181 4,800 -600 Descending Miami Center
10:44AM 27.2903 -79.6494 290° West 157 181 4,200 -360 Descending Miami Center
10:45AM 27.3039 -79.6919 290° West 152 175 4,100 -60 Descending Miami Center
10:46AM 27.3197 -79.7344 293° West 147 169 4,100  Level Miami Center
10:47AM 27.3336 -79.7769 290° West 142 163 4,100  Level Miami Center
10:48AM 27.3494 -79.8169 294° West 142 163 4,100  Level Miami Center
10:49AM 27.3633 -79.8572 291° West 142 163 4,100 -180 Level Miami Center
10:50AM 27.3772 -79.8950 292° West 142 163 3,800 -420 Descending Miami Center
10:51AM 27.3931 -79.9375 293° West 142 163 3,300 -360 Descending Miami Center
10:52AM 27.4108 -79.9847 293° West 147 169 3,100 -120 Descending Miami Center
10:53AM 27.4244 -80.0247 291° West 142 163 3,100 -240 Level Miami Center
10:54AM 27.4381 -80.0672 290° West 142 163 2,700 -420 Descending Miami Center
10:55AM 27.4517 -80.1122 289° West 152 175 2,300 -300 Descending Miami Center
10:56AM 27.4611 -80.1639 282° West 158 182 2,100 -240 Descending Miami Center